createdAt,value
2023-01-30T00:00:06.548Z,4.80
2023-01-30T00:05:05.265Z,4.80
2023-01-30T00:10:05.029Z,4.90
2023-01-30T00:15:04.320Z,4.90
2023-01-30T00:20:03.271Z,5.00
2023-01-30T00:25:02.330Z,5.00
2023-01-30T00:30:04.627Z,5.10
2023-01-30T00:35:04.220Z,5.10
2023-01-30T00:40:03.266Z,5.10
2023-01-30T00:45:20.510Z,5.10
2023-01-30T00:50:19.284Z,5.20
2023-01-30T00:55:18.621Z,5.20
2023-01-30T01:00:17.718Z,5.20
2023-01-30T01:05:16.788Z,5.30
2023-01-30T01:10:16.282Z,5.40
2023-01-30T01:15:15.553Z,5.40
2023-01-30T01:20:14.578Z,5.40
2023-01-30T01:25:13.779Z,5.50
2023-01-30T01:30:12.526Z,5.50
2023-01-30T01:35:11.565Z,5.50
2023-01-30T01:40:28.553Z,5.50
2023-01-30T01:45:27.348Z,5.40
2023-01-30T01:50:26.359Z,5.50
2023-01-30T01:55:25.260Z,5.60
2023-01-30T02:00:24.448Z,5.60
2023-01-30T02:05:23.365Z,5.60
2023-01-30T02:10:22.256Z,5.70
2023-01-30T02:15:24.381Z,5.70
2023-01-30T02:20:23.517Z,5.70
2023-01-30T02:25:22.720Z,5.70
2023-01-30T02:30:21.659Z,5.70
2023-01-30T02:35:20.740Z,5.60
2023-01-30T02:40:20.692Z,5.70
2023-01-30T02:45:19.886Z,5.70
2023-01-30T02:50:19.408Z,5.60
2023-01-30T02:55:18.981Z,5.70
2023-01-30T03:00:18.564Z,5.80
2023-01-30T03:05:17.857Z,5.80
2023-01-30T03:10:19.188Z,5.80
2023-01-30T03:15:18.790Z,5.90
2023-01-30T03:20:19.374Z,5.90
2023-01-30T03:25:19.788Z,6.00
2023-01-30T03:30:20.288Z,6.00
2023-01-30T03:35:20.184Z,6.00
2023-01-30T03:40:19.679Z,6.00
2023-01-30T03:45:18.687Z,6.00
2023-01-30T03:50:17.613Z,6.00
2023-01-30T03:55:17.257Z,6.10
2023-01-30T04:00:21.143Z,6.10
2023-01-30T04:05:22.515Z,6.00
2023-01-30T04:10:21.718Z,6.00
2023-01-30T04:15:28.172Z,6.00
2023-01-30T04:20:28.741Z,6.00
2023-01-30T04:25:27.358Z,6.00
2023-01-30T04:30:28.362Z,6.00
2023-01-30T04:35:27.583Z,6.00
2023-01-30T04:40:26.649Z,6.00
2023-01-30T04:45:30.312Z,6.00
2023-01-30T04:50:29.387Z,6.00
2023-01-30T04:55:28.603Z,6.10
2023-01-30T05:00:29.328Z,6.10
2023-01-30T05:05:28.387Z,6.00
2023-01-30T05:10:27.422Z,6.00
2023-01-30T05:15:26.380Z,6.00
2023-01-30T05:20:25.610Z,6.00
2023-01-30T05:25:24.594Z,6.00
2023-01-30T05:30:23.381Z,6.00
2023-01-30T05:35:22.413Z,6.00
2023-01-30T05:40:21.433Z,6.00
2023-01-30T05:45:20.656Z,6.00
2023-01-30T05:50:19.828Z,6.10
2023-01-30T05:55:18.815Z,6.10
2023-01-30T06:00:18.513Z,6.10
2023-01-30T06:05:17.679Z,6.10
2023-01-30T06:10:16.527Z,6.10
2023-01-30T06:15:15.980Z,6.20
2023-01-30T06:20:15.464Z,6.20
2023-01-30T06:25:14.553Z,6.30
2023-01-30T06:30:13.605Z,6.30
2023-01-30T06:35:12.494Z,6.30
2023-01-30T06:40:11.718Z,6.30
2023-01-30T06:45:10.627Z,6.40
2023-01-30T06:50:09.657Z,6.40
2023-01-30T06:55:08.739Z,6.50
2023-01-30T07:00:07.487Z,6.50
2023-01-30T07:05:06.806Z,6.50
2023-01-30T07:10:08.585Z,6.50
2023-01-30T07:15:06.548Z,6.60
2023-01-30T07:20:05.465Z,6.60
2023-01-30T07:25:04.611Z,6.70
2023-01-30T07:30:03.488Z,6.70
2023-01-30T07:35:05.551Z,6.80
2023-01-30T07:40:03.438Z,6.90
2023-01-30T07:45:02.461Z,6.90
2023-01-30T07:50:01.563Z,7.00
2023-01-30T07:55:01.715Z,7.00
2023-01-30T08:00:00.422Z,7.00
2023-01-30T08:04:59.491Z,7.10
2023-01-30T08:10:01.501Z,7.20
2023-01-30T08:15:00.633Z,7.30
2023-01-30T08:19:59.400Z,7.30
2023-01-30T08:24:58.436Z,7.40
2023-01-30T08:29:57.500Z,7.50
2023-01-30T08:34:56.684Z,7.60
2023-01-30T08:39:55.613Z,7.70
2023-01-30T08:44:54.687Z,7.90
2023-01-30T08:49:53.508Z,8.00
2023-01-30T08:54:52.497Z,8.20
2023-01-30T08:59:51.819Z,8.30
2023-01-30T09:04:50.717Z,8.30
2023-01-30T09:09:49.405Z,8.30
2023-01-30T09:14:48.439Z,8.30
2023-01-30T09:19:47.555Z,8.30
2023-01-30T09:24:46.465Z,8.40
2023-01-30T09:29:45.567Z,8.50
2023-01-30T09:34:44.436Z,8.50
2023-01-30T09:39:43.591Z,8.50
2023-01-30T09:44:42.600Z,8.60
2023-01-30T09:49:41.567Z,8.60
2023-01-30T09:54:40.629Z,8.80
2023-01-30T09:59:39.721Z,8.80
2023-01-30T10:04:40.340Z,8.80
2023-01-30T10:09:39.498Z,9.00
2023-01-30T10:14:38.721Z,8.90
2023-01-30T10:19:37.533Z,8.90
2023-01-30T10:24:36.565Z,8.90
2023-01-30T10:29:35.455Z,8.80
2023-01-30T10:34:34.566Z,8.80
2023-01-30T10:39:35.356Z,8.70
2023-01-30T10:44:34.633Z,8.60
2023-01-30T10:49:35.532Z,8.70
2023-01-30T10:54:34.768Z,8.70
2023-01-30T10:59:34.360Z,8.60
2023-01-30T11:04:33.741Z,8.60
2023-01-30T11:09:33.260Z,8.60
2023-01-30T11:14:32.582Z,8.60
2023-01-30T11:19:31.513Z,8.60
2023-01-30T11:24:30.600Z,8.70
2023-01-30T11:29:29.639Z,8.70
2023-01-30T11:34:28.622Z,8.80
2023-01-30T11:39:27.642Z,9.20
2023-01-30T11:44:28.773Z,9.10
2023-01-30T11:49:47.592Z,9.10
2023-01-30T11:54:28.770Z,9.10
2023-01-30T11:59:27.595Z,9.10
2023-01-30T12:04:26.713Z,9.10
2023-01-30T12:09:25.609Z,8.90
2023-01-30T12:14:25.119Z,9.00
2023-01-30T12:19:24.666Z,9.10
2023-01-30T12:24:23.649Z,9.10
2023-01-30T12:29:22.714Z,9.00
2023-01-30T12:34:24.408Z,9.10
2023-01-30T12:39:22.559Z,9.20
2023-01-30T12:44:21.748Z,9.30
2023-01-30T12:49:20.812Z,9.50
2023-01-30T12:54:20.421Z,9.70
2023-01-30T12:59:20.727Z,9.80
2023-01-30T13:04:21.531Z,9.80
2023-01-30T13:09:20.687Z,9.60
2023-01-30T13:14:19.705Z,9.50
2023-01-30T13:19:20.898Z,9.50
2023-01-30T13:24:19.774Z,9.60
2023-01-30T13:29:18.790Z,9.70
2023-01-30T13:34:17.693Z,9.90
2023-01-30T13:44:15.550Z,9.70
2023-01-30T13:49:14.730Z,9.70
2023-01-30T13:54:13.662Z,9.70
2023-01-30T13:59:12.697Z,9.70
2023-01-30T14:04:11.659Z,9.80
2023-01-30T14:09:10.673Z,9.80
2023-01-30T14:14:09.686Z,9.80
2023-01-30T14:19:08.698Z,9.80
2023-01-30T14:24:07.708Z,9.90
2023-01-30T14:29:06.741Z,9.80
2023-01-30T14:34:05.794Z,9.70
2023-01-30T14:39:04.749Z,9.60
2023-01-30T14:44:03.757Z,9.50
2023-01-30T14:49:04.670Z,9.50
2023-01-30T14:54:04.185Z,9.60
2023-01-30T14:59:02.759Z,9.40
2023-01-30T15:04:01.841Z,9.40
2023-01-30T15:09:00.661Z,9.20
2023-01-30T15:14:02.804Z,9.20
2023-01-30T15:19:03.439Z,9.10
2023-01-30T15:24:02.855Z,8.90
2023-01-30T15:29:01.737Z,8.90
2023-01-30T15:34:00.954Z,8.90
2023-01-30T15:38:59.681Z,8.90
2023-01-30T15:43:58.723Z,8.90
2023-01-30T15:48:57.900Z,8.80
2023-01-30T15:53:56.982Z,8.70
2023-01-30T15:58:55.709Z,8.60
2023-01-30T16:03:56.589Z,8.50
2023-01-30T16:08:55.767Z,8.40
2023-01-30T16:13:54.745Z,8.30
2023-01-30T16:18:53.792Z,8.30
2023-01-30T16:23:52.884Z,8.30
2023-01-30T16:28:51.805Z,8.30
2023-01-30T16:33:51.047Z,8.30
2023-01-30T16:38:49.852Z,8.30
2023-01-30T16:43:48.840Z,8.40
2023-01-30T16:48:47.849Z,8.30
2023-01-30T16:53:46.848Z,8.30
2023-01-30T16:58:45.954Z,8.30
2023-01-30T17:03:44.821Z,8.20
2023-01-30T17:08:44.988Z,8.10
2023-01-30T17:13:43.854Z,7.90
2023-01-30T17:18:42.767Z,7.90
2023-01-30T17:23:41.748Z,8.00
2023-01-30T17:28:41.390Z,8.00
2023-01-30T17:33:40.767Z,8.10
2023-01-30T17:38:39.816Z,8.10
2023-01-30T17:43:38.771Z,8.00
2023-01-30T17:48:37.844Z,8.10
2023-01-30T17:53:36.803Z,8.10
2023-01-30T17:58:35.809Z,8.00
2023-01-30T18:03:34.867Z,7.90
2023-01-30T18:08:33.737Z,7.90
2023-01-30T18:13:34.554Z,7.90
2023-01-30T18:18:33.779Z,7.80
2023-01-30T18:23:33.256Z,7.80
2023-01-30T18:28:31.792Z,7.70
2023-01-30T18:33:30.776Z,7.70
2023-01-30T18:38:30.296Z,7.70
2023-01-30T18:43:28.899Z,7.70
2023-01-30T18:48:28.014Z,7.70
2023-01-30T18:53:26.720Z,7.80
2023-01-30T18:58:26.845Z,7.70
2023-01-30T19:03:25.811Z,7.70
2023-01-30T19:08:26.217Z,7.70
2023-01-30T19:13:43.064Z,7.60
2023-01-30T19:18:41.861Z,7.70
2023-01-30T19:23:41.049Z,7.60
2023-01-30T19:28:41.250Z,7.50
2023-01-30T19:33:39.796Z,7.50
2023-01-30T19:38:39.108Z,7.60
2023-01-30T19:43:38.075Z,7.60
2023-01-30T19:48:36.825Z,7.40
2023-01-30T19:53:35.919Z,7.30
2023-01-30T19:58:35.197Z,7.20
2023-01-30T20:03:33.869Z,7.10
2023-01-30T20:08:33.143Z,7.00
2023-01-30T20:13:31.900Z,7.00
2023-01-30T20:18:30.792Z,6.90
2023-01-30T20:23:29.909Z,6.80
2023-01-30T20:28:28.933Z,6.70
2023-01-30T20:33:28.828Z,6.70
2023-01-30T20:38:27.754Z,6.70
2023-01-30T20:43:26.973Z,6.70
2023-01-30T20:48:25.883Z,6.60
2023-01-30T20:53:25.792Z,6.40
2023-01-30T20:58:25.038Z,6.40
2023-01-30T21:03:24.313Z,6.40
2023-01-30T21:08:22.860Z,6.30
2023-01-30T21:13:21.880Z,6.30
2023-01-30T21:18:22.757Z,6.20
2023-01-30T21:23:21.909Z,6.20
2023-01-30T21:28:20.972Z,6.20
2023-01-30T21:33:19.966Z,6.30
2023-01-30T21:38:37.040Z,6.40
2023-01-30T21:43:36.612Z,6.40
2023-01-30T21:48:35.869Z,6.40
2023-01-30T21:53:35.040Z,6.30
2023-01-30T21:58:34.321Z,6.20
2023-01-30T22:03:33.083Z,6.10
2023-01-30T22:08:32.100Z,6.10
2023-01-30T22:13:31.540Z,6.00
2023-01-30T22:18:31.016Z,5.90
2023-01-30T22:23:29.929Z,5.90
2023-01-30T22:28:29.428Z,5.90
2023-01-30T22:33:29.020Z,5.90
2023-01-30T22:38:27.987Z,5.90
2023-01-30T22:43:27.365Z,6.00
2023-01-30T22:48:26.011Z,6.10
2023-01-30T22:53:25.021Z,6.10
2023-01-30T22:58:24.176Z,6.20
2023-01-30T23:03:22.911Z,6.30
2023-01-30T23:08:22.047Z,6.30
2023-01-30T23:13:21.064Z,6.40
2023-01-30T23:18:38.141Z,6.40
2023-01-30T23:23:36.904Z,6.40
2023-01-30T23:28:35.897Z,6.50
2023-01-30T23:33:35.408Z,6.50
2023-01-30T23:38:33.940Z,6.50
2023-01-30T23:43:33.476Z,6.50
2023-01-30T23:48:32.921Z,6.50
2023-01-30T23:53:32.029Z,6.50
2023-01-30T23:58:31.010Z,6.50
